sensor_id;sensor_type;location;lat;lon;timestamp;P1;durP1;ratioP1;P2;durP2;ratioP2
27979;SDS011;15315;50.836;4.430;2024-02-26T00:07:18;4.43;;;1.80;;
27979;SDS011;15315;50.836;4.430;2024-02-26T00:17:19;2.90;;;1.17;;
27979;SDS011;15315;50.836;4.430;2024-02-26T00:27:19;6.63;;;1.65;;
27979;SDS011;15315;50.836;4.430;2024-02-26T00:37:19;3.85;;;1.50;;
27979;SDS011;15315;50.836;4.430;2024-02-26T00:47:20;2.38;;;1.50;;
27979;SDS011;15315;50.836;4.430;2024-02-26T00:57:20;4.57;;;1.50;;
27979;SDS011;15315;50.836;4.430;2024-02-26T01:07:21;2.33;;;1.10;;
27979;SDS011;15315;50.836;4.430;2024-02-26T01:17:22;2.50;;;1.48;;
27979;SDS011;15315;50.836;4.430;2024-02-26T01:27:22;4.93;;;1.38;;
27979;SDS011;15315;50.836;4.430;2024-02-26T01:37:26;4.07;;;1.40;;
27979;SDS011;15315;50.836;4.430;2024-02-26T01:47:27;3.13;;;1.75;;
27979;SDS011;15315;50.836;4.430;2024-02-26T01:57:27;3.38;;;1.00;;
27979;SDS011;15315;50.836;4.430;2024-02-26T02:07:29;3.50;;;1.00;;
27979;SDS011;15315;50.836;4.430;2024-02-26T02:17:30;1.70;;;0.90;;
27979;SDS011;15315;50.836;4.430;2024-02-26T02:27:31;1.70;;;0.93;;
27979;SDS011;15315;50.836;4.430;2024-02-26T02:37:31;4.68;;;1.17;;
27979;SDS011;15315;50.836;4.430;2024-02-26T02:47:35;1.63;;;1.00;;
27979;SDS011;15315;50.836;4.430;2024-02-26T02:57:36;1.73;;;1.05;;
27979;SDS011;15315;50.836;4.430;2024-02-26T03:07:41;2.65;;;1.00;;
27979;SDS011;15315;50.836;4.430;2024-02-26T03:17:41;3.75;;;1.23;;
27979;SDS011;15315;50.836;4.430;2024-02-26T03:27:43;1.88;;;1.10;;
27979;SDS011;15315;50.836;4.430;2024-02-26T03:37:45;1.42;;;1.10;;
27979;SDS011;15315;50.836;4.430;2024-02-26T03:47:46;5.30;;;1.10;;
27979;SDS011;15315;50.836;4.430;2024-02-26T03:57:47;6.15;;;1.55;;
27979;SDS011;15315;50.836;4.430;2024-02-26T04:07:47;1.90;;;1.10;;
27979;SDS011;15315;50.836;4.430;2024-02-26T04:17:47;4.47;;;1.67;;
27979;SDS011;15315;50.836;4.430;2024-02-26T04:27:48;4.90;;;2.08;;
27979;SDS011;15315;50.836;4.430;2024-02-26T04:37:48;4.00;;;2.35;;
27979;SDS011;15315;50.836;4.430;2024-02-26T04:47:48;4.13;;;2.60;;
27979;SDS011;15315;50.836;4.430;2024-02-26T04:57:49;3.42;;;2.22;;
27979;SDS011;15315;50.836;4.430;2024-02-26T05:07:49;6.28;;;3.00;;
27979;SDS011;15315;50.836;4.430;2024-02-26T05:17:49;4.22;;;3.03;;
27979;SDS011;15315;50.836;4.430;2024-02-26T05:27:50;5.40;;;4.00;;
27979;SDS011;15315;50.836;4.430;2024-02-26T05:37:50;7.05;;;5.65;;
27979;SDS011;15315;50.836;4.430;2024-02-26T05:47:52;10.20;;;6.68;;
27979;SDS011;15315;50.836;4.430;2024-02-26T05:57:52;10.63;;;7.80;;
27979;SDS011;15315;50.836;4.430;2024-02-26T06:07:53;14.65;;;8.85;;
27979;SDS011;15315;50.836;4.430;2024-02-26T06:17:53;13.77;;;8.32;;
27979;SDS011;15315;50.836;4.430;2024-02-26T06:27:54;12.38;;;7.95;;
27979;SDS011;15315;50.836;4.430;2024-02-26T06:37:55;12.23;;;7.05;;
27979;SDS011;15315;50.836;4.430;2024-02-26T06:47:56;13.03;;;8.00;;
27979;SDS011;15315;50.836;4.430;2024-02-26T06:57:56;9.48;;;6.97;;
27979;SDS011;15315;50.836;4.430;2024-02-26T07:07:57;10.00;;;8.00;;
27979;SDS011;15315;50.836;4.430;2024-02-26T07:17:57;13.43;;;8.45;;
27979;SDS011;15315;50.836;4.430;2024-02-26T07:28:02;10.77;;;7.82;;
27979;SDS011;15315;50.836;4.430;2024-02-26T07:38:03;9.82;;;7.70;;
27979;SDS011;15315;50.836;4.430;2024-02-26T07:48:04;10.68;;;7.70;;
27979;SDS011;15315;50.836;4.430;2024-02-26T07:58:05;12.20;;;8.27;;
27979;SDS011;15315;50.836;4.430;2024-02-26T08:08:06;9.90;;;7.25;;
27979;SDS011;15315;50.836;4.430;2024-02-26T08:18:07;10.63;;;7.63;;
27979;SDS011;15315;50.836;4.430;2024-02-26T08:28:07;8.88;;;7.05;;
27979;SDS011;15315;50.836;4.430;2024-02-26T08:38:08;10.90;;;7.80;;
27979;SDS011;15315;50.836;4.430;2024-02-26T08:48:08;7.20;;;6.47;;
27979;SDS011;15315;50.836;4.430;2024-02-26T08:58:09;9.52;;;7.30;;
27979;SDS011;15315;50.836;4.430;2024-02-26T09:08:09;8.18;;;6.43;;
27979;SDS011;15315;50.836;4.430;2024-02-26T09:18:10;7.10;;;5.80;;
27979;SDS011;15315;50.836;4.430;2024-02-26T09:28:10;8.05;;;6.65;;
27979;SDS011;15315;50.836;4.430;2024-02-26T09:38:10;11.52;;;7.30;;
27979;SDS011;15315;50.836;4.430;2024-02-26T09:48:11;8.95;;;7.07;;
27979;SDS011;15315;50.836;4.430;2024-02-26T09:58:13;7.85;;;6.85;;
27979;SDS011;15315;50.836;4.430;2024-02-26T10:08:18;8.13;;;6.30;;
27979;SDS011;15315;50.836;4.430;2024-02-26T10:18:25;6.50;;;5.67;;
27979;SDS011;15315;50.836;4.430;2024-02-26T10:38:29;5.47;;;4.70;;
27979;SDS011;15315;50.836;4.430;2024-02-26T10:48:30;5.47;;;4.60;;
27979;SDS011;15315;50.836;4.430;2024-02-26T10:58:31;9.38;;;4.32;;
27979;SDS011;15315;50.836;4.430;2024-02-26T11:08:32;6.18;;;4.10;;
27979;SDS011;15315;50.836;4.430;2024-02-26T11:18:33;5.30;;;3.53;;
27979;SDS011;15315;50.836;4.430;2024-02-26T11:28:34;5.70;;;3.70;;
27979;SDS011;15315;50.836;4.430;2024-02-26T11:38:35;4.65;;;2.83;;
27979;SDS011;15315;50.836;4.430;2024-02-26T11:48:36;5.40;;;3.47;;
27979;SDS011;15315;50.836;4.430;2024-02-26T11:58:38;5.60;;;3.05;;
27979;SDS011;15315;50.836;4.430;2024-02-26T12:08:43;5.55;;;3.22;;
27979;SDS011;15315;50.836;4.430;2024-02-26T12:18:44;4.50;;;3.35;;
27979;SDS011;15315;50.836;4.430;2024-02-26T12:28:46;3.22;;;2.70;;
27979;SDS011;15315;50.836;4.430;2024-02-26T12:38:46;2.92;;;2.53;;
27979;SDS011;15315;50.836;4.430;2024-02-26T12:48:47;3.38;;;2.53;;
27979;SDS011;15315;50.836;4.430;2024-02-26T12:58:47;4.30;;;2.45;;
27979;SDS011;15315;50.836;4.430;2024-02-26T13:08:54;4.50;;;3.10;;
27979;SDS011;15315;50.836;4.430;2024-02-26T13:19:07;4.80;;;3.63;;
27979;SDS011;15315;50.836;4.430;2024-02-26T13:29:09;4.38;;;3.28;;
27979;SDS011;15315;50.836;4.430;2024-02-26T13:49:23;6.05;;;4.05;;
27979;SDS011;15315;50.836;4.430;2024-02-26T13:59:24;9.18;;;5.10;;
27979;SDS011;15315;50.836;4.430;2024-02-26T14:09:24;8.35;;;6.03;;
27979;SDS011;15315;50.836;4.430;2024-02-26T14:19:25;7.90;;;6.18;;
27979;SDS011;15315;50.836;4.430;2024-02-26T14:29:26;11.30;;;6.90;;
27979;SDS011;15315;50.836;4.430;2024-02-26T14:39:26;10.55;;;6.38;;
27979;SDS011;15315;50.836;4.430;2024-02-26T14:49:27;12.88;;;7.45;;
27979;SDS011;15315;50.836;4.430;2024-02-26T14:59:29;10.52;;;6.63;;
27979;SDS011;15315;50.836;4.430;2024-02-26T15:09:31;10.75;;;6.78;;
27979;SDS011;15315;50.836;4.430;2024-02-26T15:19:31;7.97;;;5.38;;
27979;SDS011;15315;50.836;4.430;2024-02-26T15:29:32;10.27;;;6.47;;
27979;SDS011;15315;50.836;4.430;2024-02-26T15:39:32;9.10;;;6.22;;
27979;SDS011;15315;50.836;4.430;2024-02-26T15:49:33;9.07;;;6.00;;
27979;SDS011;15315;50.836;4.430;2024-02-26T15:59:34;10.10;;;6.20;;
27979;SDS011;15315;50.836;4.430;2024-02-26T16:09:34;7.10;;;5.15;;
27979;SDS011;15315;50.836;4.430;2024-02-26T16:19:34;7.75;;;5.00;;
27979;SDS011;15315;50.836;4.430;2024-02-26T16:29:35;7.85;;;4.80;;
27979;SDS011;15315;50.836;4.430;2024-02-26T16:39:36;10.25;;;5.28;;
27979;SDS011;15315;50.836;4.430;2024-02-26T16:49:38;7.10;;;4.78;;
27979;SDS011;15315;50.836;4.430;2024-02-26T16:59:39;10.45;;;5.57;;
27979;SDS011;15315;50.836;4.430;2024-02-26T17:09:41;8.38;;;5.45;;
27979;SDS011;15315;50.836;4.430;2024-02-26T17:19:41;8.73;;;6.10;;
27979;SDS011;15315;50.836;4.430;2024-02-26T17:29:41;8.20;;;6.15;;
27979;SDS011;15315;50.836;4.430;2024-02-26T17:39:42;11.65;;;7.43;;
27979;SDS011;15315;50.836;4.430;2024-02-26T17:49:42;12.55;;;8.02;;
27979;SDS011;15315;50.836;4.430;2024-02-26T17:59:43;12.90;;;8.10;;
27979;SDS011;15315;50.836;4.430;2024-02-26T18:09:44;18.15;;;9.52;;
27979;SDS011;15315;50.836;4.430;2024-02-26T18:19:44;14.02;;;9.70;;
27979;SDS011;15315;50.836;4.430;2024-02-26T18:29:45;17.98;;;10.60;;
27979;SDS011;15315;50.836;4.430;2024-02-26T18:39:46;23.17;;;12.05;;
27979;SDS011;15315;50.836;4.430;2024-02-26T18:49:47;19.17;;;11.40;;
27979;SDS011;15315;50.836;4.430;2024-02-26T18:59:47;16.60;;;10.32;;
27979;SDS011;15315;50.836;4.430;2024-02-26T19:09:49;19.98;;;10.95;;
27979;SDS011;15315;50.836;4.430;2024-02-26T19:19:52;21.55;;;11.02;;
27979;SDS011;15315;50.836;4.430;2024-02-26T19:29:52;18.60;;;10.18;;
27979;SDS011;15315;50.836;4.430;2024-02-26T19:39:53;15.68;;;9.77;;
27979;SDS011;15315;50.836;4.430;2024-02-26T19:49:58;14.75;;;9.95;;
27979;SDS011;15315;50.836;4.430;2024-02-26T19:59:59;15.35;;;9.70;;
27979;SDS011;15315;50.836;4.430;2024-02-26T20:09:59;19.00;;;10.50;;
27979;SDS011;15315;50.836;4.430;2024-02-26T20:20:00;15.18;;;10.10;;
27979;SDS011;15315;50.836;4.430;2024-02-26T20:30:00;20.00;;;10.95;;
27979;SDS011;15315;50.836;4.430;2024-02-26T20:40:01;17.70;;;10.70;;
27979;SDS011;15315;50.836;4.430;2024-02-26T20:50:03;19.58;;;11.13;;
27979;SDS011;15315;50.836;4.430;2024-02-26T21:00:05;20.50;;;12.30;;
27979;SDS011;15315;50.836;4.430;2024-02-26T21:10:06;21.52;;;13.05;;
27979;SDS011;15315;50.836;4.430;2024-02-26T21:20:07;30.52;;;12.85;;
27979;SDS011;15315;50.836;4.430;2024-02-26T21:30:10;22.08;;;13.95;;
27979;SDS011;15315;50.836;4.430;2024-02-26T21:40:11;22.08;;;13.40;;
27979;SDS011;15315;50.836;4.430;2024-02-26T21:50:12;22.45;;;12.38;;
27979;SDS011;15315;50.836;4.430;2024-02-26T22:00:12;19.58;;;12.70;;
27979;SDS011;15315;50.836;4.430;2024-02-26T22:10:13;19.05;;;13.18;;
27979;SDS011;15315;50.836;4.430;2024-02-26T22:20:14;22.05;;;13.15;;
27979;SDS011;15315;50.836;4.430;2024-02-26T22:30:14;21.48;;;12.75;;
27979;SDS011;15315;50.836;4.430;2024-02-26T22:40:15;20.40;;;12.35;;
27979;SDS011;15315;50.836;4.430;2024-02-26T22:50:15;20.80;;;12.13;;
27979;SDS011;15315;50.836;4.430;2024-02-26T23:00:16;20.98;;;12.45;;
27979;SDS011;15315;50.836;4.430;2024-02-26T23:10:31;20.67;;;11.70;;
27979;SDS011;15315;50.836;4.430;2024-02-26T23:20:33;23.58;;;13.05;;
27979;SDS011;15315;50.836;4.430;2024-02-26T23:30:33;19.67;;;11.90;;
27979;SDS011;15315;50.836;4.430;2024-02-26T23:40:34;20.40;;;12.13;;
27979;SDS011;15315;50.836;4.430;2024-02-26T23:50:34;19.38;;;11.27;;
